createdAt,value
2019-04-11T00:04:52.708Z,94.00
2019-04-11T00:09:58.758Z,94.20
2019-04-11T00:15:04.434Z,94.10
2019-04-11T00:20:09.668Z,94.10
2019-04-11T00:25:15.604Z,94.30
2019-04-11T00:30:20.569Z,94.40
2019-04-11T00:35:25.900Z,94.40
2019-04-11T00:40:31.181Z,94.30
2019-04-11T00:45:36.063Z,94.30
2019-04-11T00:50:40.897Z,94.30
2019-04-11T00:55:46.011Z,94.40
2019-04-11T01:00:53.510Z,94.60
2019-04-11T01:05:59.064Z,94.70
2019-04-11T01:11:05.772Z,94.70
2019-04-11T01:21:38.042Z,94.80
2019-04-11T01:26:43.491Z,94.80
2019-04-11T01:31:55.922Z,95.10
2019-04-11T01:37:01.668Z,95.30
2019-04-11T01:42:07.108Z,95.40
2019-04-11T01:47:14.924Z,95.30
2019-04-11T01:52:20.344Z,95.40
2019-04-11T01:57:25.630Z,95.60
2019-04-11T02:07:35.072Z,96.10
2019-04-11T02:12:40.017Z,96.10
2019-04-11T02:17:45.197Z,95.90
2019-04-11T02:22:54.968Z,96.00
2019-04-11T02:28:01.601Z,96.10
2019-04-11T02:33:07.252Z,95.70
2019-04-11T02:38:14.855Z,95.80
2019-04-11T02:43:20.442Z,95.80
2019-04-11T02:48:26.892Z,96.10
2019-04-11T02:53:32.761Z,96.90
2019-04-11T02:58:39.265Z,96.50
2019-04-11T03:03:45.524Z,96.90
2019-04-11T03:08:50.871Z,96.80
2019-04-11T03:13:58.155Z,97.20
2019-04-11T03:19:19.269Z,97.20
2019-04-11T03:24:10.957Z,97.10
2019-04-11T03:29:17.616Z,96.90
2019-04-11T03:35:30.950Z,96.70
2019-04-11T03:39:52.712Z,96.50
2019-04-11T03:44:43.785Z,96.30
2019-04-11T03:49:51.400Z,96.60
2019-04-11T03:54:49.792Z,96.50
2019-04-11T03:59:56.551Z,96.60
2019-04-11T04:05:03.766Z,96.50
2019-04-11T04:10:11.492Z,96.80
2019-04-11T04:15:47.178Z,96.90
2019-04-11T04:20:54.851Z,96.70
2019-04-11T04:26:01.143Z,96.40
2019-04-11T04:31:07.444Z,96.50
2019-04-11T04:36:15.297Z,96.70
2019-04-11T04:41:30.763Z,96.50
2019-04-11T04:46:43.550Z,96.60
2019-04-11T04:51:37.279Z,96.50
2019-04-11T04:56:43.712Z,95.90
2019-04-11T05:01:48.614Z,96.00
2019-04-11T05:06:54.907Z,95.60
2019-04-11T05:12:01.277Z,95.70
2019-04-11T05:17:06.715Z,95.50
2019-04-11T05:22:12.619Z,95.30
2019-04-11T05:27:17.765Z,95.10
2019-04-11T05:32:22.517Z,94.60
2019-04-11T05:37:27.345Z,94.80
2019-04-11T05:42:35.446Z,94.50
2019-04-11T05:47:40.318Z,94.20
2019-04-11T05:52:45.128Z,94.10
2019-04-11T05:57:50.222Z,94.00
2019-04-11T06:02:57.537Z,94.00
2019-04-11T06:08:05.550Z,93.10
2019-04-11T06:13:19.063Z,92.70
2019-04-11T06:18:41.904Z,92.20
2019-04-11T06:23:49.882Z,91.20
2019-04-11T06:28:56.994Z,90.90
2019-04-11T06:34:04.955Z,90.20
2019-04-11T06:44:29.977Z,88.20
2019-04-11T06:49:46.747Z,86.40
2019-04-11T06:54:56.576Z,85.20
2019-04-11T07:00:03.226Z,85.50
2019-04-11T07:05:10.758Z,85.00
2019-04-11T07:10:17.973Z,85.20
2019-04-11T07:15:25.130Z,84.80
2019-04-11T07:20:37.879Z,85.20
2019-04-11T07:26:02.425Z,84.90
2019-04-11T07:31:21.695Z,85.40
2019-04-11T07:36:45.957Z,83.40
2019-04-11T07:41:56.156Z,81.70
2019-04-11T07:47:17.139Z,80.60
2019-04-11T07:52:22.493Z,77.70
2019-04-11T07:57:38.375Z,74.90
2019-04-11T08:02:48.084Z,71.80
2019-04-11T08:08:11.071Z,71.60
2019-04-11T08:13:30.386Z,72.80
2019-04-11T08:18:41.069Z,72.10
2019-04-11T08:23:47.747Z,74.10
2019-04-11T08:29:01.415Z,75.10
2019-04-11T08:33:59.873Z,75.90
2019-04-11T08:39:08.943Z,73.70
2019-04-11T08:44:25.981Z,72.50
2019-04-11T08:49:37.587Z,71.80
2019-04-11T08:55:00.426Z,70.70
2019-04-11T09:00:28.267Z,72.50
2019-04-11T09:05:41.006Z,70.50
2019-04-11T09:10:58.094Z,69.20
2019-04-11T09:16:21.611Z,68.50
2019-04-11T09:21:46.653Z,68.90
2019-04-11T09:27:00.266Z,69.50
2019-04-11T09:32:25.099Z,69.70
2019-04-11T09:37:30.451Z,67.00
2019-04-11T09:42:43.107Z,64.20
2019-04-11T09:48:11.611Z,63.90
2019-04-11T09:53:14.148Z,65.60
2019-04-11T09:58:27.512Z,64.30
2019-04-11T10:03:36.582Z,65.20
2019-04-11T10:08:43.661Z,68.50
2019-04-11T10:13:53.283Z,70.90
2019-04-11T10:19:15.797Z,71.00
2019-04-11T10:30:10.258Z,70.20
2019-04-11T10:35:22.558Z,69.50
2019-04-11T10:40:34.939Z,70.00
2019-04-11T10:45:42.667Z,68.70
2019-04-11T10:51:08.749Z,68.70
2019-04-11T10:56:24.585Z,67.20
2019-04-11T11:01:31.732Z,66.70
2019-04-11T11:06:37.923Z,67.10
2019-04-11T11:11:44.795Z,66.90
2019-04-11T11:17:00.330Z,66.60
2019-04-11T11:22:10.457Z,67.00
2019-04-11T11:27:16.856Z,66.80
2019-04-11T11:32:22.057Z,69.70
2019-04-11T11:37:31.317Z,68.10
2019-04-11T11:42:40.358Z,67.00
2019-04-11T11:47:59.964Z,66.50
2019-04-11T11:53:12.696Z,65.40
2019-04-11T11:58:33.423Z,66.00
2019-04-11T12:03:40.719Z,67.00
2019-04-11T12:08:51.327Z,66.20
2019-04-11T12:13:58.156Z,65.90
2019-04-11T12:19:04.734Z,65.40
2019-04-11T12:24:27.920Z,64.40
2019-04-11T12:29:42.590Z,65.30
2019-04-11T12:35:06.648Z,64.40
2019-04-11T12:40:16.112Z,65.20
2019-04-11T12:45:34.376Z,64.40
2019-04-11T12:50:56.034Z,65.10
2019-04-11T12:56:11.622Z,65.40
2019-04-11T13:01:24.080Z,66.30
2019-04-11T13:06:35.504Z,65.10
2019-04-11T13:11:41.348Z,65.60
2019-04-11T13:16:47.808Z,65.20
2019-04-11T13:21:54.212Z,65.00
2019-04-11T13:27:00.785Z,65.30
2019-04-11T13:32:23.747Z,65.80
2019-04-11T13:38:09.579Z,66.50
2019-04-11T13:43:28.949Z,66.00
2019-04-11T13:48:51.904Z,67.60
2019-04-11T13:53:59.851Z,68.00
2019-04-11T13:59:17.068Z,69.20
2019-04-11T14:04:23.637Z,68.30
2019-04-11T14:09:30.759Z,67.60
2019-04-11T14:14:36.193Z,67.90
2019-04-11T14:19:42.668Z,65.90
2019-04-11T14:24:51.826Z,64.40
2019-04-11T14:30:07.413Z,65.10
2019-04-11T14:35:16.954Z,67.10
2019-04-11T14:40:29.271Z,68.40
2019-04-11T14:45:44.821Z,68.60
2019-04-11T14:51:03.269Z,69.70
2019-04-11T14:56:12.360Z,69.70
2019-04-11T15:01:18.052Z,70.90
2019-04-11T15:06:24.525Z,71.60
2019-04-11T15:11:30.989Z,72.60
2019-04-11T15:16:49.369Z,72.30
2019-04-11T15:22:06.283Z,73.40
2019-04-11T15:27:29.315Z,74.20
2019-04-11T15:32:52.089Z,74.30
2019-04-11T15:38:01.365Z,74.40
2019-04-11T15:43:11.868Z,75.00
2019-04-11T15:48:35.012Z,75.00
2019-04-11T15:53:47.827Z,75.20
2019-04-11T15:59:00.414Z,74.80
2019-04-11T16:04:23.901Z,74.50
2019-04-11T16:09:28.724Z,74.40
2019-04-11T16:14:33.552Z,74.30
2019-04-11T16:19:40.049Z,73.90
2019-04-11T16:24:46.443Z,72.90
2019-04-11T16:29:52.949Z,73.40
2019-04-11T16:35:02.453Z,74.20
2019-04-11T16:40:24.358Z,74.50
2019-04-11T16:45:43.061Z,75.20
2019-04-11T16:50:47.825Z,75.70
2019-04-11T16:55:53.866Z,75.70
2019-04-11T17:00:58.884Z,76.00
2019-04-11T17:06:08.381Z,76.40
2019-04-11T17:11:14.882Z,76.70
2019-04-11T17:16:19.810Z,77.10
2019-04-11T17:21:24.685Z,77.80
2019-04-11T17:26:29.710Z,78.60
2019-04-11T17:31:34.585Z,79.10
2019-04-11T17:36:39.458Z,78.50
2019-04-11T17:41:44.417Z,78.00
2019-04-11T17:46:49.308Z,78.20
2019-04-11T17:51:55.997Z,78.10
2019-04-11T17:57:01.561Z,78.30
2019-04-11T18:02:11.129Z,78.60
2019-04-11T18:07:17.569Z,78.90
2019-04-11T18:12:23.823Z,79.30
2019-04-11T18:17:29.075Z,79.90
2019-04-11T18:22:50.165Z,80.20
2019-04-11T18:27:53.197Z,80.60
2019-04-11T18:33:10.296Z,80.80
2019-04-11T18:38:15.144Z,81.10
2019-04-11T18:43:19.972Z,81.20
2019-04-11T18:48:24.835Z,81.00
2019-04-11T18:53:29.598Z,81.20
2019-04-11T18:58:34.649Z,81.00
2019-04-11T19:03:41.351Z,81.00
2019-04-11T19:08:46.068Z,81.10
2019-04-11T19:13:51.674Z,81.40
2019-04-11T19:18:56.739Z,80.70
2019-04-11T19:24:01.615Z,80.90
2019-04-11T19:29:06.450Z,80.80
2019-04-11T19:34:11.286Z,81.20
2019-04-11T19:39:17.133Z,80.70
2019-04-11T19:44:21.902Z,80.60
2019-04-11T19:49:28.802Z,80.80
2019-04-11T19:54:33.604Z,80.90
2019-04-11T19:59:38.668Z,80.60
2019-04-11T20:04:43.417Z,80.60
2019-04-11T20:09:48.282Z,80.30
2019-04-11T20:14:55.049Z,80.50
2019-04-11T20:20:01.576Z,80.40
2019-04-11T20:25:07.352Z,80.80
2019-04-11T20:30:12.276Z,80.70
2019-04-11T20:35:28.264Z,80.90
2019-04-11T20:40:23.924Z,81.30
2019-04-11T20:45:30.413Z,81.30
2019-04-11T20:50:35.182Z,81.70
2019-04-11T20:55:40.084Z,81.70
2019-04-11T21:00:50.660Z,82.20
2019-04-11T21:05:51.542Z,82.20
2019-04-11T21:10:56.402Z,82.40
2019-04-11T21:16:01.245Z,82.70
2019-04-11T21:21:06.092Z,82.80
2019-04-11T21:26:10.946Z,82.30
2019-04-11T21:31:15.739Z,82.70
2019-04-11T21:36:20.565Z,83.10
2019-04-11T21:41:25.601Z,83.20
2019-04-11T21:46:31.573Z,83.10
2019-04-11T21:51:41.479Z,83.30
2019-04-11T21:56:43.292Z,83.30
2019-04-11T22:01:48.332Z,83.70
2019-04-11T22:06:53.199Z,83.80
2019-04-11T22:11:58.149Z,84.00
2019-04-11T22:17:03.103Z,83.70
2019-04-11T22:22:08.027Z,83.90
2019-04-11T22:27:12.986Z,83.70
2019-04-11T22:32:17.929Z,83.70
2019-04-11T22:37:22.777Z,83.60
2019-04-11T22:42:28.033Z,83.50
2019-04-11T22:47:32.884Z,83.40
2019-04-11T22:52:39.792Z,83.40
2019-04-11T22:57:44.385Z,83.40
2019-04-11T23:02:53.621Z,83.10
2019-04-11T23:07:58.505Z,83.40
2019-04-11T23:13:03.338Z,83.70
2019-04-11T23:18:08.084Z,83.10
2019-04-11T23:23:14.046Z,83.70
2019-04-11T23:28:19.344Z,83.80
2019-04-11T23:33:24.173Z,83.70
2019-04-11T23:38:29.033Z,84.00
2019-04-11T23:43:34.333Z,84.40
2019-04-11T23:48:39.161Z,84.70
2019-04-11T23:53:43.923Z,84.40
2019-04-11T23:58:48.669Z,84.50
